createdAt,value
2023-04-29T00:00:00.000Z,4.01
2023-04-29T00:15:00.000Z,4.07
2023-04-29T00:30:00.000Z,4.01
2023-04-29T00:45:00.000Z,4
2023-04-29T01:00:00.000Z,4
2023-04-29T01:15:00.000Z,4.04
2023-04-29T01:30:00.000Z,4.11
2023-04-29T01:45:00.000Z,4.01
2023-04-29T02:00:00.000Z,4.09
2023-04-29T02:15:00.000Z,4.08
2023-04-29T02:30:00.000Z,4.14
2023-04-29T02:45:00.000Z,4.06
2023-04-29T03:00:00.000Z,4.12
2023-04-29T03:15:00.000Z,4.08
2023-04-29T03:30:00.000Z,4.11
2023-04-29T03:45:00.000Z,4.07
2023-04-29T04:00:00.000Z,4.14
2023-04-29T04:15:00.000Z,4.16
2023-04-29T04:30:00.000Z,4.16
2023-04-29T04:45:00.000Z,4.16
2023-04-29T05:00:00.000Z,4.2
2023-04-29T05:15:00.000Z,4.21
2023-04-29T05:30:00.000Z,4.2
2023-04-29T05:45:00.000Z,4.14
2023-04-29T06:00:00.000Z,4.18
2023-04-29T06:15:00.000Z,4.24
2023-04-29T06:30:00.000Z,4.85
2023-04-29T06:45:00.000Z,4.99
2023-04-29T07:00:00.000Z,4.53
2023-04-29T07:15:00.000Z,4.59
2023-04-29T07:30:00.000Z,4.74
2023-04-29T07:45:00.000Z,4.35
2023-04-29T08:00:00.000Z,4.48
2023-04-29T08:15:00.000Z,4.53
2023-04-29T08:30:00.000Z,4.35
2023-04-29T08:45:00.000Z,4.96
2023-04-29T09:00:00.000Z,14.91
2023-04-29T09:15:00.000Z,12.82
2023-04-29T09:30:00.000Z,9.38
2023-04-29T09:45:00.000Z,7.15
2023-04-29T10:00:00.000Z,6.33
2023-04-29T10:15:00.000Z,4.92
2023-04-29T10:30:00.000Z,4.59
2023-04-29T10:45:00.000Z,5.87
2023-04-29T11:00:00.000Z,6.11
2023-04-29T11:15:00.000Z,6.56
2023-04-29T11:30:00.000Z,7.25
2023-04-29T11:45:00.000Z,13.01
2023-04-29T12:00:00.000Z,7.65
2023-04-29T12:15:00.000Z,4.65
2023-04-29T12:30:00.000Z,6.91
2023-04-29T12:45:00.000Z,6
2023-04-29T13:00:00.000Z,7.51
2023-04-29T13:15:00.000Z,9.38
2023-04-29T13:30:00.000Z,8.52
2023-04-29T13:45:00.000Z,7.86
2023-04-29T14:00:00.000Z,7.2
2023-04-29T14:15:00.000Z,6.25
2023-04-29T14:30:00.000Z,5.65
2023-04-29T14:45:00.000Z,6.88
2023-04-29T15:00:00.000Z,5.09
2023-04-29T15:15:00.000Z,5.65
2023-04-29T15:30:00.000Z,5.19
2023-04-29T15:45:00.000Z,4.78
2023-04-29T16:00:00.000Z,5.06
2023-04-29T16:15:00.000Z,5.98
2023-04-29T16:30:00.000Z,6.05
2023-04-29T16:45:00.000Z,7.45
2023-04-29T17:00:00.000Z,9.04
2023-04-29T17:15:00.000Z,8.31
2023-04-29T17:30:00.000Z,7.76
2023-04-29T17:45:00.000Z,7.48
2023-04-29T18:00:00.000Z,8.51
2023-04-29T18:15:00.000Z,7.74
2023-04-29T18:30:00.000Z,9.54
2023-04-29T18:45:00.000Z,9.39
2023-04-29T19:00:00.000Z,10.44
2023-04-29T19:15:00.000Z,10.82
2023-04-29T19:30:00.000Z,10.93
2023-04-29T19:45:00.000Z,11.27
2023-04-29T20:00:00.000Z,14.67
2023-04-29T20:15:00.000Z,15.64
2023-04-29T20:30:00.000Z,14.81
2023-04-29T20:45:00.000Z,15.87
2023-04-29T21:00:00.000Z,17.49
2023-04-29T21:15:00.000Z,18.41
2023-04-29T21:30:00.000Z,16.46
2023-04-29T21:45:00.000Z,20.18
2023-04-29T22:00:00.000Z,20.58
2023-04-29T22:15:00.000Z,14.28
2023-04-29T22:30:00.000Z,14.06
2023-04-29T22:45:00.000Z,13.55
2023-04-29T23:00:00.000Z,14
2023-04-29T23:15:00.000Z,14.65
2023-04-29T23:30:00.000Z,14
2023-04-29T23:45:00.000Z,16.78
